Quick Links (Output Below):   Max & Min Temps   /   Climate Reports   /   Zone Forecasts
River Forecasts   /   Forestry Forecasts   /   Aviation Forecasts   /   Radars   /   Features

Terminal Aerodrome Forecast (Hot Springs)

Pick a Site:
Arkadelphia | El Dorado | Fayetteville | Fort Smith | Harrison | Highfill | Hot Springs | Jonesboro
Little Rock | Monticello | Mountain Home | Pine Bluff | Texarkana
 Forecast 

KHOT 242320Z 2500/2524 22004KT P6SM SCT250
      TEMPO 2509/2513 2SM BR SCT003
     FM251800 27006KT P6SM SCT250=


 Latest METARs (Observations) 
How to Decode METARs
02Z KHOT 250153Z AUTO 00000KT 10SM CLR 16/14 A3011 RMK AO2 SLP193
         T01610144
         
01Z KHOT 250053Z AUTO 05003KT 10SM CLR 17/14 A3011 RMK AO2 SLP192
         T01670139
         
00Z KHOT 242353Z AUTO 00000KT 10SM CLR 19/14 A3010 RMK AO2 SLP191
         T01940144 10250 20194 51003
         
***** Today's Observations (Above) *****


23Z KHOT 242253Z AUTO 19003KT 10SM CLR 22/15 A3010 RMK AO2 SLP188
         T02220150
         
22Z KHOT 242153Z AUTO 22004KT 10SM CLR 24/14 A3010 RMK AO2 SLP189
         T02390139
         
21Z KHOT 242053Z AUTO 20004KT 10SM CLR 24/14 A3009 RMK AO2 SLP186
         T02440139 56019
         
20Z KHOT 241953Z AUTO 00000KT 10SM CLR 24/13 A3010 RMK AO2 SLP190
         T02440133
         
19Z KHOT 241853Z AUTO 00000KT 10SM CLR 23/12 A3013 RMK AO2 SLP200
         T02280122
         
18Z KHOT 241753Z AUTO 00000KT 10SM CLR 22/12 A3015 RMK AO2 SLP207
         T02220122 10222 20083 58015
         
17Z KHOT 241653Z AUTO 19004KT 10SM CLR 20/12 A3017 RMK AO2 SLP214
         T02000117
         
***** Yesterday's Observations (Above) *****


Back to Main Page
http://www.srh.noaa.gov/lzk/qfcst.php

USA.gov is the U.S. government's official web portal to all federal, state and local government web resources and services.